sensor_id;sensor_type;location;lat;lon;timestamp;temperature;humidity
55795;DHT22;41716;51.910;4.430;2023-02-26T00:04:53;5.00;99.90
55795;DHT22;41716;51.910;4.430;2023-02-26T00:09:54;4.90;99.90
55795;DHT22;41716;51.910;4.430;2023-02-26T00:14:58;4.90;99.90
55795;DHT22;41716;51.910;4.430;2023-02-26T00:20:00;4.80;99.90
55795;DHT22;41716;51.910;4.430;2023-02-26T00:25:01;4.90;99.90
55795;DHT22;41716;51.910;4.430;2023-02-26T00:30:05;4.80;99.90
55795;DHT22;41716;51.910;4.430;2023-02-26T00:35:08;5.00;99.90
55795;DHT22;41716;51.910;4.430;2023-02-26T00:40:13;4.90;99.90
55795;DHT22;41716;51.910;4.430;2023-02-26T00:45:18;4.90;99.90
55795;DHT22;41716;51.910;4.430;2023-02-26T00:50:20;4.90;99.90
55795;DHT22;41716;51.910;4.430;2023-02-26T00:55:22;4.70;99.90
55795;DHT22;41716;51.910;4.430;2023-02-26T01:00:25;4.70;99.90
55795;DHT22;41716;51.910;4.430;2023-02-26T01:05:27;4.80;99.90
55795;DHT22;41716;51.910;4.430;2023-02-26T01:10:29;4.90;99.90
55795;DHT22;41716;51.910;4.430;2023-02-26T01:15:32;4.80;99.90
55795;DHT22;41716;51.910;4.430;2023-02-26T01:20:35;4.80;99.90
55795;DHT22;41716;51.910;4.430;2023-02-26T01:25:42;4.90;99.90
55795;DHT22;41716;51.910;4.430;2023-02-26T01:30:46;4.90;99.90
55795;DHT22;41716;51.910;4.430;2023-02-26T01:35:49;4.90;99.90
55795;DHT22;41716;51.910;4.430;2023-02-26T01:41:02;4.90;99.90
55795;DHT22;41716;51.910;4.430;2023-02-26T01:46:07;5.00;99.90
55795;DHT22;41716;51.910;4.430;2023-02-26T01:51:13;5.00;99.90
55795;DHT22;41716;51.910;4.430;2023-02-26T01:56:15;5.10;99.90
55795;DHT22;41716;51.910;4.430;2023-02-26T02:01:19;5.00;99.90
55795;DHT22;41716;51.910;4.430;2023-02-26T02:06:21;4.90;99.90
55795;DHT22;41716;51.910;4.430;2023-02-26T02:11:25;4.80;99.90
55795;DHT22;41716;51.910;4.430;2023-02-26T02:16:30;4.80;99.90
55795;DHT22;41716;51.910;4.430;2023-02-26T02:26:55;4.50;99.90
55795;DHT22;41716;51.910;4.430;2023-02-26T02:32:00;4.50;99.90
55795;DHT22;41716;51.910;4.430;2023-02-26T02:37:05;4.30;99.90
55795;DHT22;41716;51.910;4.430;2023-02-26T02:42:16;4.40;99.90
55795;DHT22;41716;51.910;4.430;2023-02-26T02:47:21;4.40;99.90
55795;DHT22;41716;51.910;4.430;2023-02-26T02:52:24;4.40;99.90
55795;DHT22;41716;51.910;4.430;2023-02-26T02:57:28;4.40;99.90
55795;DHT22;41716;51.910;4.430;2023-02-26T03:02:35;4.30;99.90
55795;DHT22;41716;51.910;4.430;2023-02-26T03:07:41;4.40;99.90
55795;DHT22;41716;51.910;4.430;2023-02-26T03:12:44;4.20;99.90
55795;DHT22;41716;51.910;4.430;2023-02-26T03:17:49;4.00;99.90
55795;DHT22;41716;51.910;4.430;2023-02-26T03:22:53;4.00;99.90
55795;DHT22;41716;51.910;4.430;2023-02-26T03:27:58;3.90;99.90
55795;DHT22;41716;51.910;4.430;2023-02-26T03:33:04;4.00;99.90
55795;DHT22;41716;51.910;4.430;2023-02-26T03:38:08;3.80;99.90
55795;DHT22;41716;51.910;4.430;2023-02-26T03:43:12;3.70;99.90
55795;DHT22;41716;51.910;4.430;2023-02-26T03:48:18;3.70;99.90
55795;DHT22;41716;51.910;4.430;2023-02-26T03:53:21;3.60;99.90
55795;DHT22;41716;51.910;4.430;2023-02-26T03:58:23;3.40;99.90
55795;DHT22;41716;51.910;4.430;2023-02-26T04:03:27;3.30;99.90
55795;DHT22;41716;51.910;4.430;2023-02-26T04:08:30;3.30;99.90
55795;DHT22;41716;51.910;4.430;2023-02-26T04:13:32;3.30;99.90
55795;DHT22;41716;51.910;4.430;2023-02-26T04:18:35;3.30;99.90
55795;DHT22;41716;51.910;4.430;2023-02-26T04:23:37;3.30;99.90
55795;DHT22;41716;51.910;4.430;2023-02-26T04:28:38;3.20;99.90
55795;DHT22;41716;51.910;4.430;2023-02-26T04:33:41;3.20;99.90
55795;DHT22;41716;51.910;4.430;2023-02-26T04:38:43;3.10;99.90
55795;DHT22;41716;51.910;4.430;2023-02-26T04:43:44;3.00;99.90
55795;DHT22;41716;51.910;4.430;2023-02-26T04:48:47;3.10;99.90
55795;DHT22;41716;51.910;4.430;2023-02-26T04:53:49;3.00;99.90
55795;DHT22;41716;51.910;4.430;2023-02-26T04:58:50;2.70;99.90
55795;DHT22;41716;51.910;4.430;2023-02-26T05:03:53;3.00;99.90
55795;DHT22;41716;51.910;4.430;2023-02-26T05:08:55;2.80;99.90
55795;DHT22;41716;51.910;4.430;2023-02-26T05:13:56;2.80;99.90
55795;DHT22;41716;51.910;4.430;2023-02-26T05:18:59;2.90;99.90
55795;DHT22;41716;51.910;4.430;2023-02-26T05:24:01;2.90;99.90
55795;DHT22;41716;51.910;4.430;2023-02-26T05:29:02;2.80;99.90
55795;DHT22;41716;51.910;4.430;2023-02-26T05:34:05;2.80;99.90
55795;DHT22;41716;51.910;4.430;2023-02-26T05:39:07;2.70;99.90
55795;DHT22;41716;51.910;4.430;2023-02-26T05:44:09;2.60;99.90
55795;DHT22;41716;51.910;4.430;2023-02-26T05:49:12;2.70;99.90
55795;DHT22;41716;51.910;4.430;2023-02-26T05:54:13;2.60;99.90
55795;DHT22;41716;51.910;4.430;2023-02-26T05:59:15;2.60;99.90
55795;DHT22;41716;51.910;4.430;2023-02-26T06:04:19;2.60;99.90
55795;DHT22;41716;51.910;4.430;2023-02-26T06:09:21;2.50;99.90
55795;DHT22;41716;51.910;4.430;2023-02-26T06:14:22;2.40;99.90
55795;DHT22;41716;51.910;4.430;2023-02-26T06:19:25;2.30;99.90
55795;DHT22;41716;51.910;4.430;2023-02-26T06:24:27;2.40;99.90
55795;DHT22;41716;51.910;4.430;2023-02-26T06:29:28;2.30;99.90
55795;DHT22;41716;51.910;4.430;2023-02-26T06:34:31;2.20;99.90
55795;DHT22;41716;51.910;4.430;2023-02-26T06:39:33;2.20;99.90
55795;DHT22;41716;51.910;4.430;2023-02-26T06:44:34;2.30;99.90
55795;DHT22;41716;51.910;4.430;2023-02-26T06:49:37;2.40;99.90
55795;DHT22;41716;51.910;4.430;2023-02-26T06:54:39;2.30;99.90
55795;DHT22;41716;51.910;4.430;2023-02-26T06:59:40;2.10;99.90
55795;DHT22;41716;51.910;4.430;2023-02-26T07:04:43;2.00;99.90
55795;DHT22;41716;51.910;4.430;2023-02-26T07:09:45;2.20;99.90
55795;DHT22;41716;51.910;4.430;2023-02-26T07:14:46;2.20;99.90
55795;DHT22;41716;51.910;4.430;2023-02-26T07:19:50;2.20;99.90
55795;DHT22;41716;51.910;4.430;2023-02-26T07:24:52;2.30;99.90
55795;DHT22;41716;51.910;4.430;2023-02-26T07:29:53;2.20;99.90
55795;DHT22;41716;51.910;4.430;2023-02-26T07:34:56;2.20;99.90
55795;DHT22;41716;51.910;4.430;2023-02-26T07:39:58;2.20;99.90
55795;DHT22;41716;51.910;4.430;2023-02-26T07:44:59;2.30;99.90
55795;DHT22;41716;51.910;4.430;2023-02-26T07:50:03;2.30;99.90
55795;DHT22;41716;51.910;4.430;2023-02-26T07:55:12;2.40;99.90
55795;DHT22;41716;51.910;4.430;2023-02-26T08:00:17;2.60;99.90
55795;DHT22;41716;51.910;4.430;2023-02-26T08:05:20;3.30;99.90
55795;DHT22;41716;51.910;4.430;2023-02-26T08:10:22;4.40;99.90
55795;DHT22;41716;51.910;4.430;2023-02-26T08:15:23;5.20;99.90
55795;DHT22;41716;51.910;4.430;2023-02-26T08:20:26;5.90;99.90
55795;DHT22;41716;51.910;4.430;2023-02-26T08:25:28;6.40;99.90
55795;DHT22;41716;51.910;4.430;2023-02-26T08:30:29;6.90;99.90
55795;DHT22;41716;51.910;4.430;2023-02-26T08:35:32;7.40;99.90
55795;DHT22;41716;51.910;4.430;2023-02-26T08:40:34;7.60;99.90
55795;DHT22;41716;51.910;4.430;2023-02-26T08:45:35;8.20;99.90
55795;DHT22;41716;51.910;4.430;2023-02-26T08:50:38;8.50;99.90
55795;DHT22;41716;51.910;4.430;2023-02-26T08:55:40;8.90;99.90
55795;DHT22;41716;51.910;4.430;2023-02-26T09:00:44;9.50;99.90
55795;DHT22;41716;51.910;4.430;2023-02-26T09:05:47;9.70;99.90
55795;DHT22;41716;51.910;4.430;2023-02-26T09:10:48;10.00;99.90
55795;DHT22;41716;51.910;4.430;2023-02-26T09:15:50;10.30;99.90
55795;DHT22;41716;51.910;4.430;2023-02-26T09:20:53;10.70;99.90
55795;DHT22;41716;51.910;4.430;2023-02-26T09:25:55;10.50;99.90
55795;DHT22;41716;51.910;4.430;2023-02-26T09:30:56;11.00;99.90
55795;DHT22;41716;51.910;4.430;2023-02-26T09:35:59;11.30;99.90
55795;DHT22;41716;51.910;4.430;2023-02-26T09:41:02;11.60;99.90
55795;DHT22;41716;51.910;4.430;2023-02-26T09:46:05;12.10;99.90
55795;DHT22;41716;51.910;4.430;2023-02-26T09:51:13;11.50;99.90
55795;DHT22;41716;51.910;4.430;2023-02-26T09:56:18;11.10;99.90
55795;DHT22;41716;51.910;4.430;2023-02-26T10:01:21;11.80;99.90
55795;DHT22;41716;51.910;4.430;2023-02-26T10:06:25;12.70;99.90
55795;DHT22;41716;51.910;4.430;2023-02-26T10:11:28;13.70;99.90
55795;DHT22;41716;51.910;4.430;2023-02-26T10:16:32;13.80;99.90
55795;DHT22;41716;51.910;4.430;2023-02-26T10:26:56;14.50;99.00
55795;DHT22;41716;51.910;4.430;2023-02-26T10:32:02;15.10;97.60
55795;DHT22;41716;51.910;4.430;2023-02-26T10:37:09;14.50;96.40
55795;DHT22;41716;51.910;4.430;2023-02-26T10:42:16;14.80;96.10
55795;DHT22;41716;51.910;4.430;2023-02-26T10:47:20;14.70;95.90
55795;DHT22;41716;51.910;4.430;2023-02-26T10:52:24;14.60;96.50
55795;DHT22;41716;51.910;4.430;2023-02-26T10:57:27;14.80;95.30
55795;DHT22;41716;51.910;4.430;2023-02-26T11:02:33;14.50;94.70
55795;DHT22;41716;51.910;4.430;2023-02-26T11:07:49;14.60;95.20
55795;DHT22;41716;51.910;4.430;2023-02-26T11:12:56;14.80;94.40
55795;DHT22;41716;51.910;4.430;2023-02-26T11:17:58;16.60;95.20
55795;DHT22;41716;51.910;4.430;2023-02-26T11:23:01;15.70;94.40
55795;DHT22;41716;51.910;4.430;2023-02-26T11:28:05;16.60;93.80
55795;DHT22;41716;51.910;4.430;2023-02-26T11:33:13;17.20;93.10
55795;DHT22;41716;51.910;4.430;2023-02-26T11:38:17;17.80;93.70
55795;DHT22;41716;51.910;4.430;2023-02-26T11:43:22;17.70;92.80
55795;DHT22;41716;51.910;4.430;2023-02-26T11:48:24;14.90;91.70
55795;DHT22;41716;51.910;4.430;2023-02-26T11:53:29;14.70;92.50
55795;DHT22;41716;51.910;4.430;2023-02-26T11:58:35;13.90;92.40
55795;DHT22;41716;51.910;4.430;2023-02-26T12:03:38;14.00;92.90
55795;DHT22;41716;51.910;4.430;2023-02-26T12:08:40;15.20;92.40
55795;DHT22;41716;51.910;4.430;2023-02-26T12:13:44;16.30;92.00
55795;DHT22;41716;51.910;4.430;2023-02-26T12:18:54;16.60;91.00
55795;DHT22;41716;51.910;4.430;2023-02-26T12:24:04;16.70;91.10
55795;DHT22;41716;51.910;4.430;2023-02-26T12:29:22;16.70;90.70
55795;DHT22;41716;51.910;4.430;2023-02-26T12:34:35;16.70;90.60
55795;DHT22;41716;51.910;4.430;2023-02-26T12:39:43;16.30;90.40
55795;DHT22;41716;51.910;4.430;2023-02-26T12:44:59;16.90;90.60
55795;DHT22;41716;51.910;4.430;2023-02-26T12:50:07;17.80;90.80
55795;DHT22;41716;51.910;4.430;2023-02-26T12:55:13;17.70;90.00
55795;DHT22;41716;51.910;4.430;2023-02-26T13:00:24;18.10;90.00
55795;DHT22;41716;51.910;4.430;2023-02-26T13:05:31;19.60;90.20
55795;DHT22;41716;51.910;4.430;2023-02-26T13:10:42;19.10;90.10
55795;DHT22;41716;51.910;4.430;2023-02-26T13:21:05;16.00;90.30
55795;DHT22;41716;51.910;4.430;2023-02-26T13:26:09;16.40;90.70
55795;DHT22;41716;51.910;4.430;2023-02-26T13:31:15;17.00;89.70
55795;DHT22;41716;51.910;4.430;2023-02-26T13:36:18;17.40;90.40
55795;DHT22;41716;51.910;4.430;2023-02-26T13:41:23;17.70;89.60
55795;DHT22;41716;51.910;4.430;2023-02-26T13:46:32;17.20;89.40
55795;DHT22;41716;51.910;4.430;2023-02-26T13:51:38;16.00;90.00
55795;DHT22;41716;51.910;4.430;2023-02-26T13:56:42;15.80;90.80
55795;DHT22;41716;51.910;4.430;2023-02-26T14:01:47;16.00;90.70
55795;DHT22;41716;51.910;4.430;2023-02-26T14:06:52;16.00;90.50
55795;DHT22;41716;51.910;4.430;2023-02-26T14:11:56;16.30;90.60
55795;DHT22;41716;51.910;4.430;2023-02-26T14:22:19;16.70;90.40
55795;DHT22;41716;51.910;4.430;2023-02-26T14:27:29;16.20;90.30
55795;DHT22;41716;51.910;4.430;2023-02-26T14:32:32;16.50;89.80
55795;DHT22;41716;51.910;4.430;2023-02-26T14:37:35;16.00;89.00
55795;DHT22;41716;51.910;4.430;2023-02-26T14:42:40;16.00;90.10
55795;DHT22;41716;51.910;4.430;2023-02-26T14:47:43;15.80;90.40
55795;DHT22;41716;51.910;4.430;2023-02-26T14:52:56;16.20;90.50
55795;DHT22;41716;51.910;4.430;2023-02-26T14:58:08;15.90;90.20
55795;DHT22;41716;51.910;4.430;2023-02-26T15:03:30;15.10;90.50
55795;DHT22;41716;51.910;4.430;2023-02-26T15:08:41;16.20;91.20
55795;DHT22;41716;51.910;4.430;2023-02-26T15:13:51;15.80;89.80
55795;DHT22;41716;51.910;4.430;2023-02-26T15:19:00;15.70;90.30
55795;DHT22;41716;51.910;4.430;2023-02-26T15:24:06;15.60;90.40
55795;DHT22;41716;51.910;4.430;2023-02-26T15:29:10;15.40;90.80
55795;DHT22;41716;51.910;4.430;2023-02-26T15:34:14;14.80;90.80
55795;DHT22;41716;51.910;4.430;2023-02-26T15:39:17;14.80;90.90
55795;DHT22;41716;51.910;4.430;2023-02-26T15:44:20;14.50;90.10
55795;DHT22;41716;51.910;4.430;2023-02-26T15:49:23;14.30;90.50
55795;DHT22;41716;51.910;4.430;2023-02-26T15:54:28;14.50;90.40
55795;DHT22;41716;51.910;4.430;2023-02-26T15:59:33;13.60;90.20
55795;DHT22;41716;51.910;4.430;2023-02-26T16:04:41;13.80;90.00
55795;DHT22;41716;51.910;4.430;2023-02-26T16:09:45;13.50;90.60
55795;DHT22;41716;51.910;4.430;2023-02-26T16:14:48;12.90;91.40
55795;DHT22;41716;51.910;4.430;2023-02-26T16:19:50;13.20;90.90
55795;DHT22;41716;51.910;4.430;2023-02-26T16:24:56;12.50;91.10
55795;DHT22;41716;51.910;4.430;2023-02-26T16:29:59;12.40;92.20
55795;DHT22;41716;51.910;4.430;2023-02-26T16:35:07;12.70;91.30
55795;DHT22;41716;51.910;4.430;2023-02-26T16:40:16;12.20;91.60
55795;DHT22;41716;51.910;4.430;2023-02-26T16:45:21;11.50;92.10
55795;DHT22;41716;51.910;4.430;2023-02-26T16:50:26;11.40;92.80
55795;DHT22;41716;51.910;4.430;2023-02-26T16:55:29;11.40;93.30
55795;DHT22;41716;51.910;4.430;2023-02-26T17:00:31;10.90;93.40
55795;DHT22;41716;51.910;4.430;2023-02-26T17:05:33;11.00;93.70
55795;DHT22;41716;51.910;4.430;2023-02-26T17:10:39;11.00;94.40
55795;DHT22;41716;51.910;4.430;2023-02-26T17:15:41;10.80;94.40
55795;DHT22;41716;51.910;4.430;2023-02-26T17:20:44;11.10;94.80
55795;DHT22;41716;51.910;4.430;2023-02-26T17:25:48;10.70;94.80
55795;DHT22;41716;51.910;4.430;2023-02-26T17:30:51;10.40;95.10
55795;DHT22;41716;51.910;4.430;2023-02-26T17:35:54;10.60;96.10
55795;DHT22;41716;51.910;4.430;2023-02-26T17:40:58;10.60;96.00
55795;DHT22;41716;51.910;4.430;2023-02-26T17:46:00;10.30;96.30
55795;DHT22;41716;51.910;4.430;2023-02-26T17:51:01;9.90;96.60
55795;DHT22;41716;51.910;4.430;2023-02-26T17:56:07;9.30;97.20
55795;DHT22;41716;51.910;4.430;2023-02-26T18:01:09;9.40;97.50
55795;DHT22;41716;51.910;4.430;2023-02-26T18:06:12;9.70;97.90
55795;DHT22;41716;51.910;4.430;2023-02-26T18:11:16;9.30;98.00
55795;DHT22;41716;51.910;4.430;2023-02-26T18:16:20;9.00;98.70
55795;DHT22;41716;51.910;4.430;2023-02-26T18:21:22;8.90;98.70
55795;DHT22;41716;51.910;4.430;2023-02-26T18:26:26;9.10;98.70
55795;DHT22;41716;51.910;4.430;2023-02-26T18:31:29;9.10;99.20
55795;DHT22;41716;51.910;4.430;2023-02-26T18:36:33;8.60;99.30
55795;DHT22;41716;51.910;4.430;2023-02-26T18:41:38;8.70;99.90
55795;DHT22;41716;51.910;4.430;2023-02-26T18:46:40;8.50;99.80
55795;DHT22;41716;51.910;4.430;2023-02-26T18:51:41;8.20;99.90
55795;DHT22;41716;51.910;4.430;2023-02-26T18:56:44;8.20;99.90
55795;DHT22;41716;51.910;4.430;2023-02-26T19:01:49;8.20;99.90
55795;DHT22;41716;51.910;4.430;2023-02-26T19:06:51;8.10;99.90
55795;DHT22;41716;51.910;4.430;2023-02-26T19:11:54;7.90;99.90
55795;DHT22;41716;51.910;4.430;2023-02-26T19:16:55;7.80;99.90
55795;DHT22;41716;51.910;4.430;2023-02-26T19:21:57;7.80;99.90
55795;DHT22;41716;51.910;4.430;2023-02-26T19:27:00;7.70;99.90
55795;DHT22;41716;51.910;4.430;2023-02-26T19:32:01;7.70;99.90
55795;DHT22;41716;51.910;4.430;2023-02-26T19:37:03;7.70;99.90
55795;DHT22;41716;51.910;4.430;2023-02-26T19:42:06;7.50;99.90
55795;DHT22;41716;51.910;4.430;2023-02-26T19:47:08;7.50;99.90
55795;DHT22;41716;51.910;4.430;2023-02-26T19:52:11;7.40;99.90
55795;DHT22;41716;51.910;4.430;2023-02-26T19:57:14;7.60;99.90
55795;DHT22;41716;51.910;4.430;2023-02-26T20:02:16;7.70;99.90
55795;DHT22;41716;51.910;4.430;2023-02-26T20:07:17;7.20;99.90
55795;DHT22;41716;51.910;4.430;2023-02-26T20:12:20;7.10;99.90
55795;DHT22;41716;51.910;4.430;2023-02-26T20:17:22;7.20;99.90
55795;DHT22;41716;51.910;4.430;2023-02-26T20:22:23;7.10;99.90
55795;DHT22;41716;51.910;4.430;2023-02-26T20:27:26;7.10;99.90
55795;DHT22;41716;51.910;4.430;2023-02-26T20:32:28;7.10;99.90
55795;DHT22;41716;51.910;4.430;2023-02-26T20:37:29;7.10;99.90
55795;DHT22;41716;51.910;4.430;2023-02-26T20:42:32;7.10;99.90
55795;DHT22;41716;51.910;4.430;2023-02-26T20:47:34;7.20;99.90
55795;DHT22;41716;51.910;4.430;2023-02-26T20:52:35;7.00;99.90
55795;DHT22;41716;51.910;4.430;2023-02-26T20:57:38;7.20;99.90
55795;DHT22;41716;51.910;4.430;2023-02-26T21:02:40;7.10;99.90
55795;DHT22;41716;51.910;4.430;2023-02-26T21:07:42;7.10;99.90
55795;DHT22;41716;51.910;4.430;2023-02-26T21:12:45;7.10;99.90
55795;DHT22;41716;51.910;4.430;2023-02-26T21:17:46;6.90;99.90
55795;DHT22;41716;51.910;4.430;2023-02-26T21:22:48;6.90;99.90
55795;DHT22;41716;51.910;4.430;2023-02-26T21:27:51;6.90;99.90
55795;DHT22;41716;51.910;4.430;2023-02-26T21:32:52;7.00;99.90
55795;DHT22;41716;51.910;4.430;2023-02-26T21:37:54;7.00;99.90
55795;DHT22;41716;51.910;4.430;2023-02-26T21:42:57;6.90;99.90
55795;DHT22;41716;51.910;4.430;2023-02-26T21:47:58;6.80;99.90
55795;DHT22;41716;51.910;4.430;2023-02-26T21:53:00;6.70;99.90
55795;DHT22;41716;51.910;4.430;2023-02-26T21:58:03;6.70;99.90
55795;DHT22;41716;51.910;4.430;2023-02-26T22:03:05;6.60;99.90
55795;DHT22;41716;51.910;4.430;2023-02-26T22:08:06;6.50;99.90
55795;DHT22;41716;51.910;4.430;2023-02-26T22:13:09;6.50;99.90
55795;DHT22;41716;51.910;4.430;2023-02-26T22:18:10;6.40;99.90
55795;DHT22;41716;51.910;4.430;2023-02-26T22:23:12;6.40;99.90
55795;DHT22;41716;51.910;4.430;2023-02-26T22:28:15;6.30;99.90
55795;DHT22;41716;51.910;4.430;2023-02-26T22:33:17;6.30;99.90
55795;DHT22;41716;51.910;4.430;2023-02-26T22:38:18;6.30;99.90
55795;DHT22;41716;51.910;4.430;2023-02-26T22:43:21;6.30;99.90
55795;DHT22;41716;51.910;4.430;2023-02-26T22:48:23;6.20;99.90
55795;DHT22;41716;51.910;4.430;2023-02-26T22:53:24;6.10;99.90
55795;DHT22;41716;51.910;4.430;2023-02-26T22:58:27;6.20;99.90
55795;DHT22;41716;51.910;4.430;2023-02-26T23:03:29;6.10;99.90
55795;DHT22;41716;51.910;4.430;2023-02-26T23:08:31;6.00;99.90
55795;DHT22;41716;51.910;4.430;2023-02-26T23:13:34;6.00;99.90
55795;DHT22;41716;51.910;4.430;2023-02-26T23:18:36;5.90;99.90
55795;DHT22;41716;51.910;4.430;2023-02-26T23:23:38;5.80;99.90
55795;DHT22;41716;51.910;4.430;2023-02-26T23:28:41;5.80;99.90
55795;DHT22;41716;51.910;4.430;2023-02-26T23:33:43;6.00;99.90
55795;DHT22;41716;51.910;4.430;2023-02-26T23:38:44;5.90;99.90
55795;DHT22;41716;51.910;4.430;2023-02-26T23:43:47;5.90;99.90
55795;DHT22;41716;51.910;4.430;2023-02-26T23:48:49;5.80;99.90
55795;DHT22;41716;51.910;4.430;2023-02-26T23:53:50;5.60;99.90
55795;DHT22;41716;51.910;4.430;2023-02-26T23:58:53;5.80;99.90
